createdAt,value
2019-05-25T00:01:49.294Z,17.14
2019-05-25T00:02:29.389Z,17.1
2019-05-25T00:03:09.869Z,17.07
2019-05-25T00:03:50.843Z,17.1
2019-05-25T00:04:31.265Z,17.15
2019-05-25T00:05:11.778Z,17.17
2019-05-25T00:05:52.271Z,17.15
2019-05-25T00:06:32.685Z,17.17
2019-05-25T00:07:13.170Z,17.12
2019-05-25T00:07:53.574Z,17.2
2019-05-25T00:08:34.089Z,17.12
2019-05-25T00:09:14.472Z,17.09
2019-05-25T00:09:54.918Z,17.1
2019-05-25T00:10:35.406Z,17.07
2019-05-25T00:11:16.954Z,17.07
2019-05-25T00:11:57.695Z,16.99
2019-05-25T00:12:37.966Z,17
2019-05-25T00:13:18.529Z,16.98
2019-05-25T00:13:58.903Z,16.99
2019-05-25T00:14:39.405Z,16.92
2019-05-25T00:16:57.641Z,16.91
2019-05-25T00:18:37.579Z,16.91
2019-05-25T00:20:27.313Z,16.88
2019-05-25T00:21:16.222Z,16.85
2019-05-25T00:21:57.659Z,16.85
2019-05-25T00:22:38.304Z,16.9
2019-05-25T00:23:18.759Z,16.8
2019-05-25T00:24:11.496Z,16.87
2019-05-25T00:24:39.718Z,16.84
2019-05-25T00:25:20.238Z,16.77
2019-05-25T00:26:01.225Z,16.78
2019-05-25T00:26:41.607Z,16.77
2019-05-25T00:27:21.992Z,16.8
2019-05-25T00:28:43.059Z,16.77
2019-05-25T00:29:23.618Z,16.75
2019-05-25T00:30:04.279Z,16.7
2019-05-25T00:30:44.814Z,16.73
2019-05-25T00:31:25.420Z,16.67
2019-05-25T00:32:05.873Z,16.67
2019-05-25T00:32:46.313Z,16.69
2019-05-25T00:33:26.799Z,16.65
2019-05-25T00:34:07.166Z,16.5
2019-05-25T00:34:47.624Z,16.52
2019-05-25T00:35:28.083Z,16.55
2019-05-25T00:36:08.530Z,16.5
2019-05-25T00:36:49.069Z,16.5
2019-05-25T00:37:29.543Z,16.48
2019-05-25T00:38:10.050Z,16.55
2019-05-25T00:38:50.509Z,16.55
2019-05-25T00:39:30.836Z,16.57
2019-05-25T00:40:11.269Z,16.55
2019-05-25T00:40:51.780Z,16.54
2019-05-25T00:41:32.264Z,16.52
2019-05-25T00:42:12.727Z,16.48
2019-05-25T00:42:53.139Z,16.48
2019-05-25T00:43:33.543Z,16.34
2019-05-25T00:44:13.957Z,16.5
2019-05-25T00:44:54.356Z,16.51
2019-05-25T00:45:34.753Z,16.54
2019-05-25T00:46:15.162Z,16.45
2019-05-25T00:46:55.577Z,16.51
2019-05-25T00:47:36.015Z,16.51
2019-05-25T00:48:16.383Z,16.5
2019-05-25T00:48:56.797Z,16.44
2019-05-25T00:50:51.979Z,16.37
2019-05-25T00:51:42.391Z,16.57
2019-05-25T00:52:23.145Z,16.44
2019-05-25T00:53:03.780Z,16.51
2019-05-25T00:53:44.494Z,16.44
2019-05-25T00:54:27.687Z,16.5
2019-05-25T00:55:05.741Z,16.44
2019-05-25T00:55:46.019Z,16.47
2019-05-25T00:56:26.399Z,16.44
2019-05-25T00:57:06.844Z,16.5
2019-05-25T00:57:47.254Z,16.47
2019-05-25T00:58:27.966Z,16.45
2019-05-25T00:59:09.346Z,16.47
2019-05-25T00:59:49.725Z,16.42
2019-05-25T01:00:30.120Z,16.32
2019-05-25T01:01:10.556Z,16.34
2019-05-25T01:01:50.963Z,16.34
2019-05-25T01:02:31.538Z,16.44
2019-05-25T01:03:11.948Z,16.36
2019-05-25T01:05:10.132Z,16.27
2019-05-25T01:05:50.358Z,16.29
2019-05-25T01:06:31.074Z,16.27
2019-05-25T01:07:11.394Z,16.25
2019-05-25T01:07:51.779Z,16.3
2019-05-25T01:08:32.177Z,16.27
2019-05-25T01:09:12.755Z,16.23
2019-05-25T01:09:53.030Z,16.17
2019-05-25T01:10:33.532Z,16.18
2019-05-25T01:11:13.952Z,16.07
2019-05-25T01:11:54.382Z,16.13
2019-05-25T01:12:34.926Z,16.04
2019-05-25T01:13:15.432Z,16.1
2019-05-25T01:13:55.809Z,16.07
2019-05-25T01:14:36.542Z,16.14
2019-05-25T01:15:16.937Z,16.08
2019-05-25T01:15:57.336Z,16.11
2019-05-25T01:16:37.773Z,16.08
2019-05-25T01:17:18.194Z,16.1
2019-05-25T01:17:58.726Z,16.1
2019-05-25T01:18:39.069Z,16.08
2019-05-25T01:19:19.522Z,16.1
2019-05-25T01:20:00.140Z,16.11
2019-05-25T01:20:40.398Z,16.11
2019-05-25T01:21:20.852Z,16.1
2019-05-25T01:22:01.244Z,16.07
2019-05-25T01:22:41.666Z,16.08
2019-05-25T01:23:22.196Z,16.07
2019-05-25T01:24:02.586Z,16.1
2019-05-25T01:24:44.965Z,16.1
2019-05-25T01:25:24.280Z,16.08
2019-05-25T01:26:04.690Z,16.06
2019-05-25T01:26:45.103Z,16.1
2019-05-25T01:27:25.544Z,16.07
2019-05-25T01:28:05.919Z,16.06
2019-05-25T01:29:26.780Z,16.04
2019-05-25T01:30:07.209Z,16.06
2019-05-25T01:30:47.619Z,16.03
2019-05-25T01:31:28.011Z,15.93
2019-05-25T01:32:08.408Z,15.95
2019-05-25T01:32:48.799Z,15.93
2019-05-25T01:33:29.218Z,15.91
2019-05-25T01:34:09.599Z,15.88
2019-05-25T01:35:47.353Z,15.85
2019-05-25T01:36:28.110Z,15.78
2019-05-25T01:37:08.511Z,15.84
2019-05-25T01:37:48.922Z,15.8
2019-05-25T01:38:29.298Z,15.74
2019-05-25T01:39:09.697Z,15.76
2019-05-25T01:39:50.136Z,15.74
2019-05-25T01:40:30.531Z,15.67
2019-05-25T01:41:10.946Z,15.67
2019-05-25T01:41:51.378Z,15.68
2019-05-25T01:42:31.812Z,15.68
2019-05-25T01:43:12.213Z,15.64
2019-05-25T01:43:52.655Z,15.62
2019-05-25T01:44:33.117Z,15.59
2019-05-25T01:45:13.574Z,15.55
2019-05-25T01:45:53.960Z,15.53
2019-05-25T01:46:34.390Z,15.52
2019-05-25T01:47:14.845Z,15.44
2019-05-25T01:47:55.280Z,15.4
2019-05-25T01:48:35.664Z,15.38
2019-05-25T01:49:16.067Z,15.38
2019-05-25T01:49:56.471Z,15.35
2019-05-25T01:50:36.908Z,15.4
2019-05-25T01:52:29.578Z,15.3
2019-05-25T01:53:11.655Z,15.35
2019-05-25T01:53:50.713Z,15.2
2019-05-25T01:54:31.153Z,15.2
2019-05-25T01:55:12.067Z,15.15
2019-05-25T01:55:52.446Z,15.13
2019-05-25T01:56:32.925Z,15.03
2019-05-25T01:57:13.477Z,15.04
2019-05-25T01:57:55.085Z,14.97
2019-05-25T01:59:16.178Z,14.98
2019-05-25T01:59:56.710Z,14.97
2019-05-25T02:00:37.045Z,15.01
2019-05-25T02:01:17.377Z,14.9
2019-05-25T02:01:58.449Z,14.8
2019-05-25T02:02:39.502Z,14.87
2019-05-25T02:03:21.154Z,14.87
2019-05-25T02:04:01.172Z,14.91
2019-05-25T02:04:42.043Z,14.82
2019-05-25T02:05:22.263Z,14.82
2019-05-25T02:06:02.970Z,14.83
2019-05-25T02:08:58.189Z,14.82
2019-05-25T02:09:40.565Z,14.83
2019-05-25T02:10:20.948Z,14.74
2019-05-25T02:11:01.468Z,14.87
2019-05-25T02:11:41.832Z,14.87
2019-05-25T02:12:22.296Z,14.83
2019-05-25T02:13:02.726Z,14.78
2019-05-25T02:13:43.131Z,14.79
2019-05-25T02:15:37.446Z,14.79
2019-05-25T02:16:17.397Z,14.83
2019-05-25T02:16:57.832Z,14.75
2019-05-25T02:17:38.444Z,14.82
2019-05-25T02:18:18.719Z,14.87
2019-05-25T02:18:59.182Z,14.78
2019-05-25T02:19:39.491Z,14.94
2019-05-25T02:20:19.992Z,14.94
2019-05-25T02:22:32.815Z,14.85
2019-05-25T02:23:17.479Z,14.86
2019-05-25T02:24:56.460Z,14.82
2019-05-25T02:27:14.574Z,14.85
2019-05-25T02:27:56.274Z,14.82
2019-05-25T02:28:36.649Z,14.79
2019-05-25T02:29:17.458Z,14.82
2019-05-25T02:29:59.140Z,14.87
2019-05-25T02:30:40.428Z,14.85
2019-05-25T02:31:20.881Z,14.82
2019-05-25T02:32:01.297Z,14.82
2019-05-25T02:32:41.686Z,14.83
2019-05-25T02:34:02.449Z,14.79
2019-05-25T02:34:42.909Z,14.71
2019-05-25T02:35:23.316Z,14.72
2019-05-25T02:37:22.101Z,14.67
2019-05-25T02:38:01.719Z,14.69
2019-05-25T02:38:42.135Z,14.69
2019-05-25T02:39:22.624Z,14.75
2019-05-25T02:40:03.083Z,14.64
2019-05-25T02:40:43.534Z,14.61
2019-05-25T02:41:23.932Z,14.71
2019-05-25T02:42:04.429Z,14.66
2019-05-25T02:42:44.778Z,14.71
2019-05-25T02:43:25.262Z,14.74
2019-05-25T02:44:05.676Z,14.79
2019-05-25T02:44:46.176Z,14.75
2019-05-25T02:45:26.652Z,14.75
2019-05-25T02:46:07.086Z,14.75
2019-05-25T02:46:47.505Z,14.71
2019-05-25T02:47:27.940Z,14.75
2019-05-25T02:48:08.426Z,14.75
2019-05-25T02:48:48.926Z,14.78
2019-05-25T02:49:29.442Z,14.78
2019-05-25T02:50:09.770Z,14.83
2019-05-25T02:50:52.928Z,14.82
2019-05-25T02:51:30.622Z,14.78
2019-05-25T02:52:11.084Z,14.87
2019-05-25T02:52:51.569Z,14.79
2019-05-25T02:53:31.959Z,14.82
2019-05-25T02:54:12.696Z,14.8
2019-05-25T02:54:53.059Z,14.74
2019-05-25T02:55:34.907Z,14.78
2019-05-25T02:56:14.031Z,14.75
2019-05-25T02:56:54.426Z,14.79
2019-05-25T02:57:34.837Z,14.69
2019-05-25T02:58:15.383Z,14.78
2019-05-25T02:58:55.964Z,14.66
2019-05-25T02:59:36.512Z,14.79
2019-05-25T03:00:16.890Z,14.74
2019-05-25T03:00:57.492Z,14.79
2019-05-25T03:01:37.961Z,14.67
2019-05-25T03:02:18.478Z,14.72
2019-05-25T03:02:59.055Z,14.74
2019-05-25T03:03:40.002Z,14.64
2019-05-25T03:04:20.898Z,14.63
2019-05-25T03:05:01.738Z,14.56
2019-05-25T03:05:42.506Z,14.52
2019-05-25T03:06:23.053Z,14.49
2019-05-25T03:07:03.630Z,14.48
2019-05-25T03:07:44.040Z,14.41
2019-05-25T03:08:24.847Z,14.41
2019-05-25T03:09:05.254Z,14.35
2019-05-25T03:09:45.607Z,14.26
2019-05-25T03:10:26.005Z,14.27
2019-05-25T03:12:20.009Z,14.26
2019-05-25T03:13:01.783Z,14.26
2019-05-25T03:13:42.092Z,14.21
2019-05-25T03:14:22.554Z,14.13
2019-05-25T03:15:03.103Z,13.99
2019-05-25T03:15:43.467Z,13.96
2019-05-25T03:16:23.934Z,13.96
2019-05-25T03:17:04.461Z,13.98
2019-05-25T03:17:45.073Z,13.88
2019-05-25T03:18:25.486Z,13.84
2019-05-25T03:19:05.855Z,13.75
2019-05-25T03:19:46.321Z,13.81
2019-05-25T03:20:26.793Z,13.63
2019-05-25T03:21:07.225Z,13.63
2019-05-25T03:21:47.949Z,13.66
2019-05-25T03:22:28.350Z,13.55
2019-05-25T03:23:49.284Z,13.46
2019-05-25T03:24:29.613Z,13.47
2019-05-25T03:25:10.109Z,13.5
2019-05-25T03:25:50.511Z,13.38
2019-05-25T03:26:30.969Z,13.36
2019-05-25T03:27:11.452Z,13.35
2019-05-25T03:27:52.058Z,13.22
2019-05-25T03:28:32.409Z,13.28
2019-05-25T03:29:12.811Z,13.22
2019-05-25T03:29:53.302Z,13.17
2019-05-25T03:30:33.734Z,13.16
2019-05-25T03:31:14.197Z,13.04
2019-05-25T03:31:54.529Z,13.06
2019-05-25T03:32:34.974Z,13.1
2019-05-25T03:33:15.353Z,13.03
2019-05-25T03:33:55.803Z,13.1
2019-05-25T03:34:36.244Z,13.06
2019-05-25T03:35:17.033Z,13.04
2019-05-25T03:35:57.617Z,13.06
2019-05-25T03:36:38.012Z,13.12
2019-05-25T03:37:18.437Z,13.17
2019-05-25T03:39:16.212Z,13.14
2019-05-25T03:39:56.579Z,13.09
2019-05-25T03:40:36.999Z,13.07
2019-05-25T03:41:17.430Z,13.14
2019-05-25T03:41:57.869Z,13.09
2019-05-25T03:42:38.401Z,13.13
2019-05-25T03:43:18.831Z,13.06
2019-05-25T03:43:59.174Z,13.1
2019-05-25T03:44:39.588Z,13.14
2019-05-25T03:45:19.981Z,13.14
2019-05-25T03:46:00.525Z,13.13
2019-05-25T03:46:40.886Z,13.07
2019-05-25T03:47:21.598Z,13.04
2019-05-25T03:49:23.215Z,13.07
2019-05-25T03:50:10.779Z,13.06
2019-05-25T03:50:51.156Z,13.06
2019-05-25T03:51:31.608Z,13.04
2019-05-25T03:52:12.028Z,13.04
2019-05-25T03:52:52.489Z,13.07
2019-05-25T03:53:32.922Z,13.14
2019-05-25T03:54:13.365Z,13.12
2019-05-25T03:54:55.998Z,13.07
2019-05-25T03:55:36.499Z,13.06
2019-05-25T03:56:16.887Z,12.95
2019-05-25T03:56:57.382Z,12.98
2019-05-25T03:57:37.901Z,12.95
2019-05-25T03:58:18.453Z,12.96
2019-05-25T03:58:58.792Z,12.96
2019-05-25T03:59:39.295Z,12.98
2019-05-25T04:00:19.834Z,12.94
2019-05-25T04:01:00.309Z,12.98
2019-05-25T04:01:40.718Z,12.91
2019-05-25T04:02:21.257Z,12.96
2019-05-25T04:03:42.898Z,12.98
2019-05-25T04:04:23.241Z,12.94
2019-05-25T04:05:03.714Z,12.98
2019-05-25T04:05:44.121Z,12.92
2019-05-25T04:06:24.562Z,12.98
2019-05-25T04:07:04.988Z,12.96
2019-05-25T04:07:45.424Z,13.01
2019-05-25T04:08:25.830Z,13.01
2019-05-25T04:09:06.229Z,13.12
2019-05-25T04:09:46.745Z,13.1
2019-05-25T04:10:27.192Z,13.16
2019-05-25T04:11:07.577Z,13.09
2019-05-25T04:11:47.982Z,13.07
2019-05-25T04:12:28.403Z,13.17
2019-05-25T04:13:08.889Z,13.21
2019-05-25T04:13:49.521Z,13.22
2019-05-25T04:14:30.324Z,13.31
2019-05-25T04:15:10.674Z,13.46
2019-05-25T04:15:51.142Z,13.61
2019-05-25T04:16:31.755Z,13.61
2019-05-25T04:17:12.271Z,13.73
2019-05-25T04:17:52.797Z,13.76
2019-05-25T04:18:33.197Z,13.9
2019-05-25T04:19:14.072Z,13.91
2019-05-25T04:19:55.595Z,13.94
2019-05-25T04:20:35.922Z,14.05
2019-05-25T04:21:16.305Z,14.17
2019-05-25T04:21:56.702Z,14.24
2019-05-25T04:24:11.289Z,14.41
2019-05-25T04:24:51.701Z,14.45
2019-05-25T04:25:32.084Z,14.45
2019-05-25T04:27:25.343Z,14.38
2019-05-25T05:07:39.754Z,19.53
2019-05-25T05:08:47.665Z,19.62
2019-05-25T05:10:23.322Z,20.01
2019-05-25T05:11:03.543Z,20.05
2019-05-25T05:11:43.910Z,20.19
2019-05-25T05:12:24.378Z,20.26
2019-05-25T05:13:05.047Z,20.48
2019-05-25T05:13:45.616Z,20.6
2019-05-25T05:14:25.923Z,20.6
2019-05-25T05:15:06.628Z,20.85
2019-05-25T05:15:46.884Z,20.88
2019-05-25T05:16:27.439Z,20.96
2019-05-25T05:17:07.785Z,21.16
2019-05-25T05:18:28.608Z,21.4
2019-05-25T05:19:08.997Z,21.4
2019-05-25T05:19:49.373Z,21.52
2019-05-25T05:20:29.746Z,21.59
2019-05-25T05:21:10.190Z,21.71
2019-05-25T05:21:50.518Z,21.89
2019-05-25T05:22:30.929Z,21.91
2019-05-25T05:23:11.345Z,22.08
2019-05-25T05:23:51.777Z,22.21
2019-05-25T05:24:32.141Z,22.24
2019-05-25T05:25:12.597Z,22.33
2019-05-25T05:25:52.992Z,22.35
2019-05-25T05:26:33.325Z,22.45
2019-05-25T05:27:13.766Z,22.38
2019-05-25T05:27:54.164Z,22.51
2019-05-25T05:28:34.561Z,22.54
2019-05-25T05:29:14.969Z,22.52
2019-05-25T05:30:54.730Z,22.82
2019-05-25T05:31:40.871Z,22.93
2019-05-25T05:32:27.306Z,23.06
2019-05-25T05:33:02.540Z,23.23
2019-05-25T05:33:42.928Z,23.34
2019-05-25T05:34:23.524Z,23.42
2019-05-25T05:35:03.921Z,23.47
2019-05-25T05:35:44.320Z,23.54
2019-05-25T05:36:24.810Z,23.64
2019-05-25T05:37:05.245Z,23.68
2019-05-25T05:37:45.758Z,23.57
2019-05-25T05:38:26.232Z,23.72
2019-05-25T05:39:06.721Z,23.68
2019-05-25T05:39:47.078Z,23.87
2019-05-25T05:40:27.951Z,23.87
2019-05-25T05:41:08.455Z,23.87
2019-05-25T05:41:48.864Z,24.04
2019-05-25T05:42:29.350Z,24.06
2019-05-25T05:43:10.084Z,23.99
2019-05-25T05:43:50.850Z,23.96
2019-05-25T05:44:31.533Z,24.16
2019-05-25T05:45:11.969Z,24.12
2019-05-25T05:45:52.563Z,24.29
2019-05-25T05:46:33.544Z,24.23
2019-05-25T05:47:14.043Z,24.26
2019-05-25T05:48:35.033Z,24.42
2019-05-25T05:49:15.435Z,24.48
2019-05-25T05:49:56.128Z,24.42
2019-05-25T05:50:36.557Z,24.56
2019-05-25T05:51:17.209Z,24.67
2019-05-25T05:51:58.868Z,24.68
2019-05-25T05:52:39.286Z,24.82
2019-05-25T05:53:25.037Z,24.82
2019-05-25T05:54:07.763Z,24.89
2019-05-25T05:54:48.232Z,24.77
2019-05-25T05:55:28.627Z,24.93
2019-05-25T05:56:09.051Z,24.9
2019-05-25T05:56:49.509Z,25.05
2019-05-25T05:57:30.081Z,25.05
2019-05-25T05:58:10.563Z,25.24
2019-05-25T05:58:50.970Z,25.31
2019-05-25T05:59:31.586Z,25.39
2019-05-25T06:00:12.343Z,25.41
2019-05-25T06:00:52.781Z,25.48
2019-05-25T06:01:33.392Z,25.61
2019-05-25T06:02:13.804Z,25.42
2019-05-25T06:03:34.622Z,25.07
2019-05-25T06:04:15.713Z,25.01
2019-05-25T06:04:56.282Z,25.04
2019-05-25T06:05:37.642Z,25.07
2019-05-25T06:06:18.297Z,24.93
2019-05-25T06:06:58.949Z,25.04
2019-05-25T06:07:39.435Z,25.07
2019-05-25T06:08:20.091Z,25.07
2019-05-25T06:09:00.632Z,25.01
2019-05-25T06:09:41.222Z,25.05
2019-05-25T06:10:21.734Z,25.11
2019-05-25T06:11:02.485Z,25.07
2019-05-25T06:11:48.485Z,25.02
2019-05-25T06:12:29.524Z,25.07
2019-05-25T06:13:09.975Z,24.93
2019-05-25T06:13:50.499Z,25.09
2019-05-25T06:14:31.863Z,24.99
2019-05-25T06:15:16.885Z,24.98
2019-05-25T06:15:57.321Z,24.99
2019-05-25T06:16:37.786Z,24.92
2019-05-25T06:17:18.165Z,25.04
2019-05-25T06:17:58.711Z,25.08
2019-05-25T06:18:39.099Z,25.02
2019-05-25T06:19:19.568Z,25.23
2019-05-25T06:20:00.186Z,25.2
2019-05-25T06:20:41.065Z,25.41
2019-05-25T06:21:21.505Z,25.49
2019-05-25T06:22:01.929Z,25.63
2019-05-25T06:22:42.314Z,25.74
2019-05-25T06:23:23.169Z,25.91
2019-05-25T06:24:03.627Z,25.94
2019-05-25T06:24:45.046Z,26.01
2019-05-25T06:25:25.517Z,25.94
2019-05-25T06:26:06.335Z,25.83
2019-05-25T06:26:46.818Z,25.76
2019-05-25T06:27:28.085Z,25.69
2019-05-25T06:28:07.827Z,25.48
2019-05-25T06:28:48.685Z,25.41
2019-05-25T06:29:29.346Z,25.35
2019-05-25T06:30:10.097Z,24.99
2019-05-25T06:30:50.738Z,25.02
2019-05-25T06:31:31.508Z,24.84
2019-05-25T06:32:12.262Z,24.8
2019-05-25T06:33:33.461Z,24.55
2019-05-25T06:34:14.524Z,24.66
2019-05-25T06:34:55.094Z,24.55
2019-05-25T06:35:35.802Z,24.33
2019-05-25T06:36:16.571Z,24.19
2019-05-25T06:36:57.315Z,24.12
2019-05-25T06:37:37.643Z,23.96
2019-05-25T06:38:19.128Z,23.86
2019-05-25T06:38:59.396Z,23.74
2019-05-25T06:39:40.274Z,23.71
2019-05-25T06:40:21.124Z,23.6
2019-05-25T06:41:01.685Z,23.56
2019-05-25T06:41:43.772Z,23.41
2019-05-25T06:42:24.199Z,23.23
2019-05-25T06:43:05.174Z,23.19
2019-05-25T06:43:45.793Z,23.06
2019-05-25T06:44:26.535Z,22.96
2019-05-25T06:45:07.220Z,22.94
2019-05-25T06:45:47.768Z,22.97
2019-05-25T06:46:28.648Z,23.09
2019-05-25T06:47:09.587Z,23.12
2019-05-25T06:47:50.463Z,23.19
2019-05-25T06:48:31.026Z,23.34
2019-05-25T06:49:13.478Z,23.29
2019-05-25T06:49:53.918Z,23.34
2019-05-25T06:50:34.878Z,23.38
2019-05-25T06:55:07.702Z,23.34
2019-05-25T07:01:51.435Z,23.09
2019-05-25T07:02:30.594Z,23
2019-05-25T07:03:11.028Z,23.07
2019-05-25T07:03:51.583Z,22.88
2019-05-25T07:04:31.979Z,22.93
2019-05-25T07:05:12.329Z,22.69
2019-05-25T07:05:52.896Z,22.56
2019-05-25T07:06:36.862Z,22.48
2019-05-25T07:07:16.972Z,22.44
2019-05-25T07:08:37.757Z,22.42
2019-05-25T07:09:18.168Z,22.35
2019-05-25T07:09:58.572Z,22.31
2019-05-25T07:10:40.951Z,22.23
2019-05-25T07:11:21.339Z,22.14
2019-05-25T07:12:01.767Z,21.99
2019-05-25T07:12:42.281Z,22.04
2019-05-25T07:13:22.544Z,21.99
2019-05-25T07:14:03.046Z,21.94
2019-05-25T07:14:45.980Z,21.83
2019-05-25T07:16:06.965Z,21.96
2019-05-25T07:16:47.425Z,21.98
2019-05-25T07:17:27.902Z,21.89
2019-05-25T07:18:08.631Z,21.83
2019-05-25T07:18:50.742Z,21.82
2019-05-25T07:19:31.419Z,21.75
2019-05-25T07:20:12.658Z,21.77
2019-05-25T07:20:53.038Z,21.67
2019-05-25T07:22:14.393Z,21.75
2019-05-25T07:22:55.963Z,21.71
2019-05-25T07:31:47.499Z,22.23
2019-05-25T07:35:19.244Z,22.38
2019-05-25T07:35:59.885Z,22.27
2019-05-25T07:36:40.353Z,22.23
2019-05-25T07:37:20.714Z,22.31
2019-05-25T07:38:01.183Z,22.33
2019-05-25T07:38:41.771Z,22.3
2019-05-25T07:39:22.114Z,22.38
2019-05-25T07:40:02.507Z,22.39
2019-05-25T07:40:42.841Z,22.52
2019-05-25T07:41:23.253Z,22.59
2019-05-25T07:42:03.589Z,22.63
2019-05-25T07:42:44.022Z,22.74
2019-05-25T07:43:24.394Z,22.99
2019-05-25T07:44:04.755Z,23.09
2019-05-25T07:44:45.323Z,23.18
2019-05-25T07:47:04.349Z,23.57
2019-05-25T07:47:44.521Z,23.78
2019-05-25T07:48:25.018Z,23.79
2019-05-25T07:49:05.307Z,23.93
2019-05-25T07:49:45.745Z,24.04
2019-05-25T07:50:26.062Z,24.18
2019-05-25T07:51:06.474Z,24.15
2019-05-25T07:51:46.857Z,24.11
2019-05-25T07:52:27.391Z,24.24
2019-05-25T07:53:07.858Z,24.37
2019-05-25T07:53:48.240Z,24.56
2019-05-25T07:54:28.730Z,24.66
2019-05-25T07:55:09.073Z,24.92
2019-05-25T07:55:50.319Z,25.08
2019-05-25T07:56:30.748Z,25.05
2019-05-25T07:57:11.144Z,25.22
2019-05-25T07:57:52.252Z,25.31
2019-05-25T07:58:39.457Z,25.44
2019-05-25T07:59:19.839Z,25.38
2019-05-25T08:00:00.449Z,25.34
2019-05-25T08:00:43.818Z,25.27
2019-05-25T08:01:25.010Z,25.11
2019-05-25T08:02:05.346Z,25.01
2019-05-25T08:02:46.395Z,24.9
2019-05-25T08:03:26.897Z,24.86
2019-05-25T08:04:09.536Z,24.86
2019-05-25T08:04:49.783Z,24.7
2019-05-25T08:05:30.085Z,24.63
2019-05-25T08:06:10.536Z,24.55
2019-05-25T08:06:50.890Z,24.71
2019-05-25T08:07:31.323Z,24.77
2019-05-25T08:08:11.739Z,24.89
2019-05-25T08:08:52.114Z,24.99
2019-05-25T08:09:32.651Z,24.99
2019-05-25T08:10:13.415Z,25.01
2019-05-25T08:10:53.869Z,24.94
2019-05-25T08:11:34.360Z,24.89
2019-05-25T08:12:14.728Z,24.93
2019-05-25T08:12:55.188Z,24.84
2019-05-25T08:13:35.531Z,24.99
2019-05-25T08:14:15.846Z,24.87
2019-05-25T08:14:56.193Z,24.92
2019-05-25T08:15:36.595Z,24.89
2019-05-25T08:16:21.194Z,24.97
2019-05-25T08:17:01.619Z,24.94
2019-05-25T08:17:42.020Z,24.93
2019-05-25T08:18:22.626Z,24.87
2019-05-25T08:19:02.803Z,24.82
2019-05-25T08:19:43.370Z,24.79
2019-05-25T08:20:23.794Z,24.59
2019-05-25T08:21:04.261Z,24.7
2019-05-25T08:21:44.610Z,24.59
2019-05-25T08:22:24.988Z,24.64
2019-05-25T08:23:05.378Z,24.67
2019-05-25T08:23:45.787Z,24.67
2019-05-25T08:24:26.160Z,24.67
2019-05-25T08:25:06.647Z,24.66
2019-05-25T08:25:47.044Z,24.63
2019-05-25T08:26:27.403Z,24.7
2019-05-25T08:27:07.783Z,24.74
2019-05-25T08:27:48.207Z,24.8
2019-05-25T08:28:32.475Z,24.86
2019-05-25T08:29:09.014Z,25.05
2019-05-25T08:29:49.436Z,25.17
2019-05-25T08:30:29.863Z,25.27
2019-05-25T08:31:10.317Z,25.27
2019-05-25T08:32:31.463Z,25.36
2019-05-25T08:33:12.687Z,25.27
2019-05-25T08:33:52.867Z,25.22
2019-05-25T08:34:33.341Z,25.08
2019-05-25T08:35:14.120Z,24.93
2019-05-25T08:35:54.536Z,24.94
2019-05-25T08:36:35.023Z,24.92
2019-05-25T08:37:15.516Z,24.86
2019-05-25T08:37:55.834Z,24.67
2019-05-25T08:38:36.385Z,24.64
2019-05-25T08:39:16.689Z,24.59
2019-05-25T08:39:57.113Z,24.79
2019-05-25T08:40:37.464Z,24.83
2019-05-25T08:41:17.824Z,24.92
2019-05-25T08:42:00.154Z,24.98
2019-05-25T08:42:40.533Z,24.92
2019-05-25T08:43:20.953Z,25.05
2019-05-25T08:44:04.337Z,25.23
2019-05-25T08:44:41.784Z,25.3
2019-05-25T08:45:25.252Z,25.41
2019-05-25T08:46:02.891Z,25.51
2019-05-25T08:46:43.016Z,25.41
2019-05-25T08:47:23.361Z,25.48
2019-05-25T08:48:03.925Z,25.45
2019-05-25T08:48:44.362Z,25.31
2019-05-25T08:49:24.731Z,25.24
2019-05-25T08:50:05.139Z,25.07
2019-05-25T08:50:45.782Z,25.04
2019-05-25T08:51:25.930Z,25.02
2019-05-25T08:52:06.351Z,25.05
2019-05-25T08:52:46.768Z,25.17
2019-05-25T08:53:40.440Z,25.22
2019-05-25T08:54:07.483Z,25.27
2019-05-25T08:54:47.951Z,25.36
2019-05-25T08:55:28.349Z,25.24
2019-05-25T08:56:08.749Z,25.23
2019-05-25T08:56:49.128Z,25.35
2019-05-25T08:57:30.502Z,25.38
2019-05-25T08:58:11.021Z,25.54
2019-05-25T08:58:55.435Z,25.6
2019-05-25T08:59:34.840Z,25.66
2019-05-25T09:00:15.020Z,25.59
2019-05-25T09:00:56.645Z,25.6
2019-05-25T09:01:36.248Z,25.66
2019-05-25T09:02:16.715Z,25.75
2019-05-25T09:02:57.030Z,25.83
2019-05-25T09:03:37.490Z,25.94
2019-05-25T09:04:17.925Z,26.19
2019-05-25T09:04:58.359Z,26.17
2019-05-25T09:05:38.771Z,26.32
2019-05-25T09:06:19.424Z,26.49
2019-05-25T09:06:59.799Z,26.57
2019-05-25T09:07:40.253Z,26.61
2019-05-25T09:08:20.630Z,26.68
2019-05-25T09:09:00.940Z,26.73
2019-05-25T09:09:41.403Z,26.76
2019-05-25T09:10:21.835Z,26.78
2019-05-25T09:11:02.252Z,26.9
2019-05-25T09:11:43.769Z,27.01
2019-05-25T09:12:24.133Z,27.08
2019-05-25T09:13:06.514Z,27.01
2019-05-25T09:13:46.764Z,26.93
2019-05-25T09:14:27.189Z,26.86
2019-05-25T09:15:07.824Z,27.05
2019-05-25T09:15:49.180Z,26.9
2019-05-25T09:16:29.638Z,26.84
2019-05-25T09:17:09.923Z,26.86
2019-05-25T09:17:50.308Z,26.87
2019-05-25T09:18:30.710Z,26.86
2019-05-25T09:19:11.088Z,26.87
2019-05-25T09:19:51.472Z,26.86
2019-05-25T09:20:32.045Z,27.01
2019-05-25T09:21:12.349Z,26.94
2019-05-25T09:22:01.785Z,27.13
2019-05-25T09:23:13.658Z,27.12
2019-05-25T09:23:53.958Z,27.12
2019-05-25T09:24:34.371Z,27.09
2019-05-25T09:25:15.057Z,27.33
2019-05-25T09:25:55.388Z,27.34
2019-05-25T09:26:35.799Z,27.52
2019-05-25T09:27:16.199Z,27.68
2019-05-25T09:27:56.640Z,27.66
2019-05-25T09:28:37.050Z,27.69
2019-05-25T09:29:19.894Z,27.86
2019-05-25T09:30:40.646Z,27.65
2019-05-25T09:31:21.985Z,27.9
2019-05-25T09:32:02.137Z,27.9
2019-05-25T09:32:43.215Z,28.02
2019-05-25T09:33:23.518Z,28.06
2019-05-25T09:34:03.875Z,28.06
2019-05-25T09:34:44.398Z,28.25
2019-05-25T09:35:24.695Z,28.35
2019-05-25T09:36:05.168Z,28.39
2019-05-25T09:36:45.484Z,28.54
2019-05-25T09:37:25.934Z,28.74
2019-05-25T09:38:06.392Z,28.79
2019-05-25T09:38:46.758Z,29
2019-05-25T09:39:27.142Z,29
2019-05-25T09:40:07.804Z,28.91
2019-05-25T09:40:48.301Z,28.97
2019-05-25T09:41:28.814Z,29.07
2019-05-25T09:42:09.144Z,29.18
2019-05-25T09:42:49.619Z,29.25
2019-05-25T09:43:29.934Z,29.36
2019-05-25T09:44:10.629Z,29.36
2019-05-25T09:44:50.816Z,29.41
2019-05-25T09:45:31.245Z,29.37
2019-05-25T09:46:11.677Z,29.47
2019-05-25T09:46:52.071Z,29.44
2019-05-25T09:47:33.737Z,29.55
2019-05-25T09:48:14.225Z,29.35
2019-05-25T09:48:55.152Z,29.37
2019-05-25T09:49:35.853Z,29.26
2019-05-25T09:50:16.260Z,29.25
2019-05-25T09:50:56.830Z,29.08
2019-05-25T09:51:37.217Z,29.18
2019-05-25T09:52:17.605Z,29.18
2019-05-25T09:52:58.502Z,29.21
2019-05-25T09:53:38.907Z,29.32
2019-05-25T09:54:20.171Z,29.37
2019-05-25T09:55:10.543Z,29.49
2019-05-25T09:55:51.077Z,29.62
2019-05-25T09:56:31.426Z,29.69
2019-05-25T09:57:11.872Z,29.76
2019-05-25T09:57:52.493Z,29.71
2019-05-25T09:58:32.958Z,29.84
2019-05-25T09:59:19.929Z,29.82
2019-05-25T09:59:57.086Z,29.94
2019-05-25T10:00:40.131Z,29.97
2019-05-25T10:01:17.803Z,30.21
2019-05-25T10:01:58.243Z,30
2019-05-25T10:02:38.623Z,30.1
2019-05-25T10:03:19.102Z,30.08
2019-05-25T10:03:59.824Z,30.15
2019-05-25T10:04:40.485Z,30.26
2019-05-25T10:05:20.888Z,30.3
2019-05-25T10:06:10.026Z,30.3
2019-05-25T10:06:43.337Z,30.26
2019-05-25T10:07:23.797Z,30.3
2019-05-25T10:08:04.165Z,30.37
2019-05-25T10:08:44.927Z,30.23
2019-05-25T10:09:25.119Z,30.4
2019-05-25T10:10:05.497Z,30.3
2019-05-25T10:10:45.920Z,30.18
2019-05-25T10:11:28.004Z,30.1
2019-05-25T10:12:08.354Z,30.06
2019-05-25T10:12:48.835Z,29.82
2019-05-25T10:13:29.205Z,29.81
2019-05-25T10:14:09.609Z,29.74
2019-05-25T10:14:49.979Z,29.74
2019-05-25T10:15:30.705Z,29.62
2019-05-25T10:16:12.997Z,29.44
2019-05-25T10:16:56.048Z,29.36
2019-05-25T10:19:09.657Z,29.11
2019-05-25T10:19:50.340Z,29.08
2019-05-25T10:20:30.665Z,29.1
2019-05-25T10:21:11.334Z,28.95
2019-05-25T10:21:51.439Z,28.92
2019-05-25T10:22:31.872Z,28.92
2019-05-25T10:23:12.309Z,28.94
2019-05-25T10:23:56.430Z,29.1
2019-05-25T10:24:36.810Z,29.14
2019-05-25T10:25:17.228Z,29
2019-05-25T10:25:57.634Z,28.95
2019-05-25T10:26:38.047Z,28.92
2019-05-25T10:27:18.372Z,29.08
2019-05-25T10:27:58.770Z,29.08